Volcan De Teneguia — ECLA — position and weather

sailwx.info

Track history (hours):
 
Tides and Currents Weather Stations Pressure Air Temp Water Temp Dewpoint Dewpoint Depression Visibility Wind Speed Wind Dir Waves Ship Positions

Volcan De Teneguia

Last reported at 2017-Oct-16 06:53 UTC. Time now 2017-Oct-19 07:31 UTC.
Position N 35°44' W 007°23'.

Length 145 m; draft 5.2 m.

Type: Cargo ship. MMSI: 225317000.

Date/timePositionNaut miles runAvg speedWind from/ knotsBaromVisibWave heightAir tempDewpointWater temp
2017-Oct-16 06:53N 35°44' W 007°23'2510.9
2017-Oct-16 04:38N 35°27' W 007°45'111.1
2017-Oct-16 04:31N 35°26' W 007°46'711.3
2017-Oct-16 03:54N 35°21' W 007°52'511.3
2017-Oct-16 03:29N 35°17' W 007°56'511.1
2017-Oct-16 03:00N 35°14' W 008°01'3411.0
2017-Oct-15 23:57N 34°50' W 008°30'811.0
2017-Oct-15 23:11N 34°44' W 008°38'211.0
2017-Oct-15 23:00N 34°43' W 008°39'511.0
2017-Oct-15 22:30N 34°39' W 008°44'611.3
2017-Oct-15 21:59N 34°35' W 008°49'511.3
2017-Oct-15 21:30N 34°31' W 008°54'611.2
2017-Oct-15 21:00N 34°27' W 008°59'611.2
2017-Oct-15 20:30N 34°23' W 009°04'611.3
2017-Oct-15 20:00N 34°20' W 009°09'611.1
2017-Oct-15 19:30N 34°15' W 009°13'31311.3
2017-Oct-14 15:54N 30°37' W 013°38'512.1
2017-Oct-14 15:30N 30°33' W 013°42'812.0
2017-Oct-14 14:48N 30°27' W 013°49'412.0
2017-Oct-14 14:30N 30°25' W 013°52'612.3
2017-Oct-14 14:00N 30°21' W 013°57'612.2
2017-Oct-14 13:30N 30°16' W 014°02'612.1
2017-Oct-14 13:00N 30°12' W 014°07'612.0
2017-Oct-14 12:30N 30°08' W 014°12'612.0
2017-Oct-14 12:00N 30°04' W 014°17'611.9
2017-Oct-14 11:30N 29°60' W 014°22'611.7
2017-Oct-14 11:00N 29°55' W 014°27'3011.5
2017-Oct-14 08:23N 29°34' W 014°52'512.0
2017-Oct-14 08:00N 29°31' W 014°56'612.4
2017-Oct-14 07:30N 29°27' W 015°01'613.0
2017-Oct-14 07:01N 29°22' W 015°06'612.9
2017-Oct-14 06:31N 29°18' W 015°11'713.1
2017-Oct-14 06:00N 29°13' W 015°17'713.2
2017-Oct-14 05:30N 29°09' W 015°22'713.2
2017-Oct-14 05:01N 29°04' W 015°28'612.9
2017-Oct-14 04:30N 28°60' W 015°33'612.8
2017-Oct-14 04:00N 28°55' W 015°38'612.9
2017-Oct-14 03:30N 28°51' W 015°43'612.7
2017-Oct-14 03:00N 28°46' W 015°48'612.6
2017-Oct-14 02:30N 28°42' W 015°54'612.4
2017-Oct-14 02:00N 28°37' W 015°58'612.1
2017-Oct-14 01:30N 28°33' W 016°03'612.3
2017-Oct-14 01:00N 28°29' W 016°09'4 8.1
2017-Oct-14 00:30N 28°29' W 016°14'0 0.2
2017-Oct-13 23:59N 28°29' W 016°14'0 0.0
2017-Oct-13 23:29N 28°29' W 016°14'0 0.0
2017-Oct-13 22:59N 28°29' W 016°14'0 0.0
2017-Oct-13 22:29N 28°29' W 016°14'0 0.0
2017-Oct-13 21:59N 28°29' W 016°14'0 0.0
2017-Oct-13 21:29N 28°29' W 016°14'0 0.0
2017-Oct-13 20:59N 28°29' W 016°14'0 0.0
2017-Oct-13 20:29N 28°29' W 016°14'0 0.0
2017-Oct-13 19:50N 28°29' W 016°14'0 0.0
2017-Oct-13 19:20N 28°29' W 016°14'0 0.0
2017-Oct-13 18:59N 28°29' W 016°14'0 1.0
2017-Oct-13 18:31N 28°29' W 016°14'510.2
2017-Oct-13 18:00N 28°26' W 016°08'612.0
2017-Oct-13 17:30N 28°24' W 016°02'612.1
2017-Oct-13 17:01N 28°22' W 015°56'612.1
2017-Oct-13 16:30N 28°20' W 015°49'612.4
2017-Oct-13 16:01N 28°18' W 015°43'612.1
2017-Oct-13 15:30N 28°16' W 015°36'611.8
2017-Oct-13 15:00N 28°14' W 015°30'611.7
2017-Oct-13 14:30N 28°12' W 015°24'5 9.5
2017-Oct-13 14:00N 28°07' W 015°25'2 3.3
2017-Oct-13 13:29N 28°09' W 015°25'0 0.0
2017-Oct-13 12:59N 28°09' W 015°25'0 0.0
2017-Oct-13 12:20N 28°09' W 015°25'0 0.0
2017-Oct-13 11:50N 28°09' W 015°25'0 0.0
2017-Oct-13 11:23N 28°09' W 015°25'0 0.0
2017-Oct-13 10:53N 28°09' W 015°25'0 0.0
2017-Oct-13 10:23N 28°09' W 015°25'0 0.0
2017-Oct-13 09:50N 28°09' W 015°25'0 0.0
2017-Oct-13 09:23N 28°09' W 015°25'0 0.0
2017-Oct-13 08:38N 28°09' W 015°25'0 0.0
2017-Oct-13 08:23N 28°09' W 015°25'0 0.0
2017-Oct-13 07:56N 28°09' W 015°25'0 0.0
2017-Oct-13 07:30N 28°09' W 015°25'2 3.8
2017-Oct-13 07:00N 28°07' W 015°24'5 9.4
2017-Oct-13 06:30N 28°12' W 015°24'612.4
2017-Oct-13 06:00N 28°14' W 015°30'612.5
2017-Oct-13 05:30N 28°16' W 015°37'612.3
2017-Oct-13 05:00N 28°18' W 015°43'612.3
2017-Oct-13 04:30N 28°20' W 015°50'612.6
2017-Oct-13 04:00N 28°23' W 015°57'612.6
2017-Oct-13 03:30N 28°25' W 016°03'612.7
2017-Oct-13 03:00N 28°27' W 016°10'4 3.0
2017-Oct-13 01:44N 28°29' W 016°14'0 0.0
2017-Oct-13 01:26N 28°29' W 016°14'0 0.0
2017-Oct-13 00:56N 28°29' W 016°14'0 0.0
2017-Oct-13 00:26N 28°29' W 016°14'0 0.0
2017-Oct-12 23:56N 28°29' W 016°14'0 0.0
2017-Oct-12 23:30N 28°29' W 016°14'1 1.3
2017-Oct-12 23:00N 28°29' W 016°14'510.4
2017-Oct-12 22:30N 28°30' W 016°08'713.1
2017-Oct-12 22:00N 28°34' W 016°02'713.3
2017-Oct-12 21:30N 28°39' W 015°57'613.1
2017-Oct-12 21:00N 28°43' W 015°52'612.7
2017-Oct-12 20:30N 28°48' W 015°46'612.2
2017-Oct-12 20:01N 28°52' W 015°41'713.4
2017-Oct-12 19:31N 28°57' W 015°36'713.4
2017-Oct-12 19:01N 29°01' W 015°30'713.7
2017-Oct-12 18:31N 29°06' W 015°25'713.8
2017-Oct-12 18:01N 29°11' W 015°19'713.5
2017-Oct-12 17:30N 29°16' W 015°13'713.4
2017-Oct-12 17:00N 29°20' W 015°08'713.5
2017-Oct-12 16:30N 29°25' W 015°03'714.0
2017-Oct-12 16:00N 29°30' W 014°57'714.1
2017-Oct-12 15:30N 29°35' W 014°51'714.1
2017-Oct-12 15:00N 29°40' W 014°45'713.9
2017-Oct-12 14:30N 29°45' W 014°39'713.8
2017-Oct-12 14:00N 29°49' W 014°34'713.4
2017-Oct-12 13:30N 29°54' W 014°28'2413.4
2017-Oct-12 11:44N 30°11' W 014°09'313.4
2017-Oct-12 11:31N 30°13' W 014°06'713.4
2017-Oct-12 11:00N 30°18' W 014°01'813.2
2017-Oct-12 10:26N 30°23' W 013°55'613.0
2017-Oct-12 10:00N 30°27' W 013°50'713.0
2017-Oct-12 09:30N 30°31' W 013°44'713.1
2017-Oct-12 08:58N 30°36' W 013°39'1913.5
2017-Oct-12 07:34N 30°49' W 013°23'113.5
2017-Oct-12 07:30N 30°50' W 013°22'713.4
2017-Oct-12 07:00N 30°55' W 013°16'713.2
2017-Oct-12 06:30N 30°59' W 013°11'713.6
2017-Oct-12 06:00N 31°04' W 013°06'713.7
2017-Oct-12 05:29N 31°09' W 012°60'613.5
2017-Oct-12 05:00N 31°14' W 012°54'714.1
2017-Oct-12 04:30N 31°19' W 012°48'714.0
2017-Oct-12 04:00N 31°24' W 012°43'713.9
2017-Oct-12 03:30N 31°29' W 012°37'713.9
2017-Oct-12 02:58N 31°34' W 012°31'1113.4
2017-Oct-12 02:07N 31°42' W 012°21'213.4
2017-Oct-12 02:00N 31°43' W 012°20'713.3
2017-Oct-12 01:30N 31°47' W 012°14'713.3
2017-Oct-12 01:00N 31°52' W 012°08'713.3
2017-Oct-12 00:30N 31°57' W 012°03'713.0
2017-Oct-12 00:00N 32°01' W 011°57'612.8
2017-Oct-11 23:30N 32°05' W 011°52'813.2
2017-Oct-11 22:56N 32°11' W 011°45'1513.9
2017-Oct-11 21:50N 32°22' W 011°33'1114.1
2017-Oct-11 21:03N 32°29' W 011°23'214.1
2017-Oct-11 20:57N 32°30' W 011°22'1613.5
2017-Oct-11 19:44N 32°42' W 011°08'313.7
2017-Oct-11 19:30N 32°44' W 011°05'713.8
2017-Oct-11 18:59N 32°49' W 010°59'713.8
2017-Oct-11 18:30N 32°54' W 010°54'813.7
2017-Oct-11 17:54N 32°59' W 010°46'1013.7
2017-Oct-11 17:11N 33°06' W 010°38'513.7
2017-Oct-11 16:48N 33°10' W 010°33'22313.2
2017-Oct-10 23:57N 35°46' W 007°21'613.2
2017-Oct-10 23:30N 35°51' W 007°16'713.1
2017-Oct-10 23:00N 35°56' W 007°10'713.6
2017-Oct-10 22:28N 36°01' W 007°04'2212.8
2017-Oct-10 20:46N 36°15' W 006°44'413.4
2017-Oct-10 20:29N 36°18' W 006°40'24 1.8
2017-Oct-10 07:02N 36°32' W 006°17'0 0.0
2017-Oct-10 06:50N 36°32' W 006°17'51 1.7
2017-Oct-09 00:32N 35°59' W 007°05'011.3
2017-Oct-09 00:30N 35°58' W 007°05'611.4
2017-Oct-09 00:00N 35°54' W 007°10'1611.5
2017-Oct-08 22:35N 35°43' W 007°24'211.3
2017-Oct-08 22:27N 35°42' W 007°26'1911.2
2017-Oct-08 20:45N 35°29' W 007°43'511.2
2017-Oct-08 20:20N 35°26' W 007°47'1511.5
2017-Oct-08 19:01N 35°15' W 008°00'017.4
2017-Oct-08 19:00N 35°15' W 008°01'8211.8
2017-Oct-08 12:00N 34°17' W 009°12'611.4
2017-Oct-08 11:29N 34°13' W 009°17'611.6
2017-Oct-08 11:00N 34°09' W 009°22'611.4
2017-Oct-08 10:30N 34°05' W 009°26'42213.5
2017-Oct-07 03:13N 29°09' W 015°21'312.3
2017-Oct-07 02:58N 29°07' W 015°23'612.5
2017-Oct-07 02:27N 29°03' W 015°28'612.8
2017-Oct-07 02:00N 28°59' W 015°33'713.1
2017-Oct-07 01:29N 28°54' W 015°39'613.1
2017-Oct-07 01:00N 28°50' W 015°44'713.4
2017-Oct-07 00:29N 28°45' W 015°50'713.6
2017-Oct-07 00:00N 28°40' W 015°55'713.5
2017-Oct-06 23:30N 28°36' W 016°00'713.5
2017-Oct-06 22:59N 28°31' W 016°06'713.1
2017-Oct-06 22:29N 28°29' W 016°13'1 1.6
2017-Oct-06 22:00N 28°29' W 016°14'0 0.0
2017-Oct-06 21:30N 28°29' W 016°14'0 0.0
2017-Oct-06 20:49N 28°29' W 016°14'0 0.0
2017-Oct-06 20:20N 28°29' W 016°14'0 0.0
2017-Oct-06 19:47N 28°29' W 016°14'0 0.0
2017-Oct-06 19:20N 28°29' W 016°14'0 0.0
2017-Oct-06 19:00N 28°29' W 016°14'0 0.0
2017-Oct-06 18:30N 28°29' W 016°14'0 0.0
2017-Oct-06 18:00N 28°29' W 016°14'0 0.0
2017-Oct-06 17:28N 28°29' W 016°14'0 0.0
2017-Oct-06 17:00N 28°29' W 016°14'0 0.0
2017-Oct-06 16:03N 28°29' W 016°14'0 0.0
2017-Oct-06 16:00N 28°29' W 016°14'0 0.0
2017-Oct-06 15:29N 28°29' W 016°14'0 0.0
2017-Oct-06 14:00N 28°29' W 016°14'0 0.4
2017-Oct-06 13:30N 28°29' W 016°14'2 4.9
2017-Oct-06 13:00N 28°28' W 016°11'713.1
2017-Oct-06 12:30N 28°26' W 016°04'713.1
2017-Oct-06 12:00N 28°24' W 015°57'713.2
2017-Oct-06 11:30N 28°22' W 015°50'713.4
2017-Oct-06 11:00N 28°19' W 015°43'713.5
2017-Oct-06 10:30N 28°16' W 015°36'713.3
2017-Oct-06 10:00N 28°14' W 015°29'612.4
2017-Oct-06 09:30N 28°11' W 015°23'3 5.8
2017-Oct-06 09:00N 28°08' W 015°25'1 1.1
2017-Oct-06 08:29N 28°09' W 015°25'0 0.0
2017-Oct-06 07:59N 28°09' W 015°25'0 0.0
2017-Oct-06 07:20N 28°09' W 015°25'  
Track history (hours):
 
Tides and Currents Weather Stations Pressure Air Temp Water Temp Dewpoint Dewpoint Depression Visibility Wind Speed Wind Dir Waves Ship Positions

Volcan De Teneguia

Last reported at 2017-Oct-16 06:53 UTC. Time now 2017-Oct-19 07:31 UTC.
Position N 35°44' W 007°23'.

Length 145 m; draft 5.2 m.

Type: Cargo ship. MMSI: 225317000.

Date/timePositionNaut miles runAvg speedWind from/ knotsBaromVisibWave heightAir tempDewpointWater temp
2017-Oct-16 06:53N 35°44' W 007°23'2510.9
2017-Oct-16 04:38N 35°27' W 007°45'111.1
2017-Oct-16 04:31N 35°26' W 007°46'711.3
2017-Oct-16 03:54N 35°21' W 007°52'511.3
2017-Oct-16 03:29N 35°17' W 007°56'511.1
2017-Oct-16 03:00N 35°14' W 008°01'3411.0
2017-Oct-15 23:57N 34°50' W 008°30'811.0
2017-Oct-15 23:11N 34°44' W 008°38'211.0
2017-Oct-15 23:00N 34°43' W 008°39'511.0
2017-Oct-15 22:30N 34°39' W 008°44'611.3
2017-Oct-15 21:59N 34°35' W 008°49'511.3
2017-Oct-15 21:30N 34°31' W 008°54'611.2
2017-Oct-15 21:00N 34°27' W 008°59'611.2
2017-Oct-15 20:30N 34°23' W 009°04'611.3
2017-Oct-15 20:00N 34°20' W 009°09'611.1
2017-Oct-15 19:30N 34°15' W 009°13'31311.3
2017-Oct-14 15:54N 30°37' W 013°38'512.1
2017-Oct-14 15:30N 30°33' W 013°42'812.0
2017-Oct-14 14:48N 30°27' W 013°49'412.0
2017-Oct-14 14:30N 30°25' W 013°52'612.3
2017-Oct-14 14:00N 30°21' W 013°57'612.2
2017-Oct-14 13:30N 30°16' W 014°02'612.1
2017-Oct-14 13:00N 30°12' W 014°07'612.0
2017-Oct-14 12:30N 30°08' W 014°12'612.0
2017-Oct-14 12:00N 30°04' W 014°17'611.9
2017-Oct-14 11:30N 29°60' W 014°22'611.7
2017-Oct-14 11:00N 29°55' W 014°27'3011.5
2017-Oct-14 08:23N 29°34' W 014°52'512.0
2017-Oct-14 08:00N 29°31' W 014°56'612.4
2017-Oct-14 07:30N 29°27' W 015°01'613.0
2017-Oct-14 07:01N 29°22' W 015°06'612.9
2017-Oct-14 06:31N 29°18' W 015°11'713.1
2017-Oct-14 06:00N 29°13' W 015°17'713.2
2017-Oct-14 05:30N 29°09' W 015°22'713.2
2017-Oct-14 05:01N 29°04' W 015°28'612.9
2017-Oct-14 04:30N 28°60' W 015°33'612.8
2017-Oct-14 04:00N 28°55' W 015°38'612.9
2017-Oct-14 03:30N 28°51' W 015°43'612.7
2017-Oct-14 03:00N 28°46' W 015°48'612.6
2017-Oct-14 02:30N 28°42' W 015°54'612.4
2017-Oct-14 02:00N 28°37' W 015°58'612.1
2017-Oct-14 01:30N 28°33' W 016°03'612.3
2017-Oct-14 01:00N 28°29' W 016°09'4 8.1
2017-Oct-14 00:30N 28°29' W 016°14'0 0.2
2017-Oct-13 23:59N 28°29' W 016°14'0 0.0
2017-Oct-13 23:29N 28°29' W 016°14'0 0.0
2017-Oct-13 22:59N 28°29' W 016°14'0 0.0
2017-Oct-13 22:29N 28°29' W 016°14'0 0.0
2017-Oct-13 21:59N 28°29' W 016°14'0 0.0
2017-Oct-13 21:29N 28°29' W 016°14'0 0.0
2017-Oct-13 20:59N 28°29' W 016°14'0 0.0
2017-Oct-13 20:29N 28°29' W 016°14'0 0.0
2017-Oct-13 19:50N 28°29' W 016°14'0 0.0
2017-Oct-13 19:20N 28°29' W 016°14'0 0.0
2017-Oct-13 18:59N 28°29' W 016°14'0 1.0
2017-Oct-13 18:31N 28°29' W 016°14'510.2
2017-Oct-13 18:00N 28°26' W 016°08'612.0
2017-Oct-13 17:30N 28°24' W 016°02'612.1
2017-Oct-13 17:01N 28°22' W 015°56'612.1
2017-Oct-13 16:30N 28°20' W 015°49'612.4
2017-Oct-13 16:01N 28°18' W 015°43'612.1
2017-Oct-13 15:30N 28°16' W 015°36'611.8
2017-Oct-13 15:00N 28°14' W 015°30'611.7
2017-Oct-13 14:30N 28°12' W 015°24'5 9.5
2017-Oct-13 14:00N 28°07' W 015°25'2 3.3
2017-Oct-13 13:29N 28°09' W 015°25'0 0.0
2017-Oct-13 12:59N 28°09' W 015°25'0 0.0
2017-Oct-13 12:20N 28°09' W 015°25'0 0.0
2017-Oct-13 11:50N 28°09' W 015°25'0 0.0
2017-Oct-13 11:23N 28°09' W 015°25'0 0.0
2017-Oct-13 10:53N 28°09' W 015°25'0 0.0
2017-Oct-13 10:23N 28°09' W 015°25'0 0.0
2017-Oct-13 09:50N 28°09' W 015°25'0 0.0
2017-Oct-13 09:23N 28°09' W 015°25'0 0.0
2017-Oct-13 08:38N 28°09' W 015°25'0 0.0
2017-Oct-13 08:23N 28°09' W 015°25'0 0.0
2017-Oct-13 07:56N 28°09' W 015°25'0 0.0
2017-Oct-13 07:30N 28°09' W 015°25'2 3.8
2017-Oct-13 07:00N 28°07' W 015°24'5 9.4
2017-Oct-13 06:30N 28°12' W 015°24'612.4
2017-Oct-13 06:00N 28°14' W 015°30'612.5
2017-Oct-13 05:30N 28°16' W 015°37'612.3
2017-Oct-13 05:00N 28°18' W 015°43'612.3
2017-Oct-13 04:30N 28°20' W 015°50'612.6
2017-Oct-13 04:00N 28°23' W 015°57'612.6
2017-Oct-13 03:30N 28°25' W 016°03'612.7
2017-Oct-13 03:00N 28°27' W 016°10'4 3.0
2017-Oct-13 01:44N 28°29' W 016°14'0 0.0
2017-Oct-13 01:26N 28°29' W 016°14'0 0.0
2017-Oct-13 00:56N 28°29' W 016°14'0 0.0
2017-Oct-13 00:26N 28°29' W 016°14'0 0.0
2017-Oct-12 23:56N 28°29' W 016°14'0 0.0
2017-Oct-12 23:30N 28°29' W 016°14'1 1.3
2017-Oct-12 23:00N 28°29' W 016°14'510.4
2017-Oct-12 22:30N 28°30' W 016°08'713.1
2017-Oct-12 22:00N 28°34' W 016°02'713.3
2017-Oct-12 21:30N 28°39' W 015°57'613.1
2017-Oct-12 21:00N 28°43' W 015°52'612.7
2017-Oct-12 20:30N 28°48' W 015°46'612.2
2017-Oct-12 20:01N 28°52' W 015°41'713.4
2017-Oct-12 19:31N 28°57' W 015°36'713.4
2017-Oct-12 19:01N 29°01' W 015°30'713.7
2017-Oct-12 18:31N 29°06' W 015°25'713.8
2017-Oct-12 18:01N 29°11' W 015°19'713.5
2017-Oct-12 17:30N 29°16' W 015°13'713.4
2017-Oct-12 17:00N 29°20' W 015°08'713.5
2017-Oct-12 16:30N 29°25' W 015°03'714.0
2017-Oct-12 16:00N 29°30' W 014°57'714.1
2017-Oct-12 15:30N 29°35' W 014°51'714.1
2017-Oct-12 15:00N 29°40' W 014°45'713.9
2017-Oct-12 14:30N 29°45' W 014°39'713.8
2017-Oct-12 14:00N 29°49' W 014°34'713.4
2017-Oct-12 13:30N 29°54' W 014°28'2413.4
2017-Oct-12 11:44N 30°11' W 014°09'313.4
2017-Oct-12 11:31N 30°13' W 014°06'713.4
2017-Oct-12 11:00N 30°18' W 014°01'813.2
2017-Oct-12 10:26N 30°23' W 013°55'613.0
2017-Oct-12 10:00N 30°27' W 013°50'713.0
2017-Oct-12 09:30N 30°31' W 013°44'713.1
2017-Oct-12 08:58N 30°36' W 013°39'1913.5
2017-Oct-12 07:34N 30°49' W 013°23'113.5
2017-Oct-12 07:30N 30°50' W 013°22'713.4
2017-Oct-12 07:00N 30°55' W 013°16'713.2
2017-Oct-12 06:30N 30°59' W 013°11'713.6
2017-Oct-12 06:00N 31°04' W 013°06'713.7
2017-Oct-12 05:29N 31°09' W 012°60'613.5
2017-Oct-12 05:00N 31°14' W 012°54'714.1
2017-Oct-12 04:30N 31°19' W 012°48'714.0
2017-Oct-12 04:00N 31°24' W 012°43'713.9
2017-Oct-12 03:30N 31°29' W 012°37'713.9
2017-Oct-12 02:58N 31°34' W 012°31'1113.4
2017-Oct-12 02:07N 31°42' W 012°21'213.4
2017-Oct-12 02:00N 31°43' W 012°20'713.3
2017-Oct-12 01:30N 31°47' W 012°14'713.3
2017-Oct-12 01:00N 31°52' W 012°08'713.3
2017-Oct-12 00:30N 31°57' W 012°03'713.0
2017-Oct-12 00:00N 32°01' W 011°57'612.8
2017-Oct-11 23:30N 32°05' W 011°52'813.2
2017-Oct-11 22:56N 32°11' W 011°45'1513.9
2017-Oct-11 21:50N 32°22' W 011°33'1114.1
2017-Oct-11 21:03N 32°29' W 011°23'214.1
2017-Oct-11 20:57N 32°30' W 011°22'1613.5
2017-Oct-11 19:44N 32°42' W 011°08'313.7
2017-Oct-11 19:30N 32°44' W 011°05'713.8
2017-Oct-11 18:59N 32°49' W 010°59'713.8
2017-Oct-11 18:30N 32°54' W 010°54'813.7
2017-Oct-11 17:54N 32°59' W 010°46'1013.7
2017-Oct-11 17:11N 33°06' W 010°38'513.7
2017-Oct-11 16:48N 33°10' W 010°33'22313.2
2017-Oct-10 23:57N 35°46' W 007°21'613.2
2017-Oct-10 23:30N 35°51' W 007°16'713.1
2017-Oct-10 23:00N 35°56' W 007°10'713.6
2017-Oct-10 22:28N 36°01' W 007°04'2212.8
2017-Oct-10 20:46N 36°15' W 006°44'413.4
2017-Oct-10 20:29N 36°18' W 006°40'24 1.8
2017-Oct-10 07:02N 36°32' W 006°17'0 0.0
2017-Oct-10 06:50N 36°32' W 006°17'51 1.7
2017-Oct-09 00:32N 35°59' W 007°05'011.3
2017-Oct-09 00:30N 35°58' W 007°05'611.4
2017-Oct-09 00:00N 35°54' W 007°10'1611.5
2017-Oct-08 22:35N 35°43' W 007°24'211.3
2017-Oct-08 22:27N 35°42' W 007°26'1911.2
2017-Oct-08 20:45N 35°29' W 007°43'511.2
2017-Oct-08 20:20N 35°26' W 007°47'1511.5
2017-Oct-08 19:01N 35°15' W 008°00'017.4
2017-Oct-08 19:00N 35°15' W 008°01'8211.8
2017-Oct-08 12:00N 34°17' W 009°12'611.4
2017-Oct-08 11:29N 34°13' W 009°17'611.6
2017-Oct-08 11:00N 34°09' W 009°22'611.4
2017-Oct-08 10:30N 34°05' W 009°26'42213.5
2017-Oct-07 03:13N 29°09' W 015°21'312.3
2017-Oct-07 02:58N 29°07' W 015°23'612.5
2017-Oct-07 02:27N 29°03' W 015°28'612.8
2017-Oct-07 02:00N 28°59' W 015°33'713.1
2017-Oct-07 01:29N 28°54' W 015°39'613.1
2017-Oct-07 01:00N 28°50' W 015°44'713.4
2017-Oct-07 00:29N 28°45' W 015°50'713.6
2017-Oct-07 00:00N 28°40' W 015°55'713.5
2017-Oct-06 23:30N 28°36' W 016°00'713.5
2017-Oct-06 22:59N 28°31' W 016°06'713.1
2017-Oct-06 22:29N 28°29' W 016°13'1 1.6
2017-Oct-06 22:00N 28°29' W 016°14'0 0.0
2017-Oct-06 21:30N 28°29' W 016°14'0 0.0
2017-Oct-06 20:49N 28°29' W 016°14'0 0.0
2017-Oct-06 20:20N 28°29' W 016°14'0 0.0
2017-Oct-06 19:47N 28°29' W 016°14'0 0.0
2017-Oct-06 19:20N 28°29' W 016°14'0 0.0
2017-Oct-06 19:00N 28°29' W 016°14'0 0.0
2017-Oct-06 18:30N 28°29' W 016°14'0 0.0
2017-Oct-06 18:00N 28°29' W 016°14'0 0.0
2017-Oct-06 17:28N 28°29' W 016°14'0 0.0
2017-Oct-06 17:00N 28°29' W 016°14'0 0.0
2017-Oct-06 16:03N 28°29' W 016°14'0 0.0
2017-Oct-06 16:00N 28°29' W 016°14'0 0.0
2017-Oct-06 15:29N 28°29' W 016°14'0 0.0
2017-Oct-06 14:00N 28°29' W 016°14'0 0.4
2017-Oct-06 13:30N 28°29' W 016°14'2 4.9
2017-Oct-06 13:00N 28°28' W 016°11'713.1
2017-Oct-06 12:30N 28°26' W 016°04'713.1
2017-Oct-06 12:00N 28°24' W 015°57'713.2
2017-Oct-06 11:30N 28°22' W 015°50'713.4
2017-Oct-06 11:00N 28°19' W 015°43'713.5
2017-Oct-06 10:30N 28°16' W 015°36'713.3
2017-Oct-06 10:00N 28°14' W 015°29'612.4
2017-Oct-06 09:30N 28°11' W 015°23'3 5.8
2017-Oct-06 09:00N 28°08' W 015°25'1 1.1
2017-Oct-06 08:29N 28°09' W 015°25'0 0.0
2017-Oct-06 07:59N 28°09' W 015°25'0 0.0
2017-Oct-06 07:20N 28°09' W 015°25'  

Dump ship's entire track history